Time,TemperatureF,DewpointF,PressureIn,WindDirection,WindDirectionDegrees,WindSpeedMPH,WindSpeedGustMPH,Humidity,HourlyPrecipIn,Conditions,Clouds,dailyrainin,SoftwareType,DateUTC
2013-10-24 00:13:00,40.0,-99.9,-100.00,SW,227,2.0,4.0,-999,0.00,,,0.00,,2013-10-24 05:13:00,
2013-10-24 00:22:00,40.0,-99.9,-100.00,SW,227,2.0,4.0,-999,0.00,,,0.00,,2013-10-24 05:22:00,
2013-10-24 00:43:00,39.0,-99.9,-100.00,WSW,251,2.0,3.0,-999,0.00,,,0.00,,2013-10-24 05:43:00,
2013-10-24 00:53:00,39.0,-99.9,-100.00,WSW,251,2.0,3.0,-999,0.00,,,0.00,,2013-10-24 05:53:00,
2013-10-24 01:12:00,40.0,-99.9,-100.00,WSW,248,2.0,4.0,-999,0.00,,,0.00,,2013-10-24 06:12:00,
2013-10-24 01:22:00,40.0,-99.9,-100.00,WSW,248,2.0,4.0,-999,0.00,,,0.00,,2013-10-24 06:22:00,
2013-10-24 01:42:00,40.0,-99.9,-100.00,West,262,3.0,5.0,-999,0.00,,,0.00,,2013-10-24 06:42:00,
2013-10-24 01:52:00,40.0,-99.9,-100.00,West,262,3.0,5.0,-999,0.00,,,0.00,,2013-10-24 06:52:00,
2013-10-24 02:12:00,41.0,-99.9,-100.00,WNW,300,2.0,5.0,-999,0.00,,,0.00,,2013-10-24 07:12:00,
2013-10-24 02:22:00,41.0,-99.9,-100.00,WNW,300,2.0,5.0,-999,0.00,,,0.00,,2013-10-24 07:22:00,
2013-10-24 02:42:00,40.0,-99.9,-100.00,NW,321,6.0,7.0,-999,0.00,,,0.00,,2013-10-24 07:42:00,
2013-10-24 02:53:00,40.0,-99.9,-100.00,NW,321,6.0,7.0,-999,0.00,,,0.00,,2013-10-24 07:53:00,
2013-10-24 03:12:00,40.0,-99.9,-100.00,NW,304,3.0,5.0,-999,0.00,,,0.00,,2013-10-24 08:12:00,
2013-10-24 03:22:00,40.0,-99.9,-100.00,NW,304,3.0,5.0,-999,0.00,,,0.00,,2013-10-24 08:22:00,
2013-10-24 03:42:00,40.0,-99.9,-100.00,NW,312,3.0,5.0,-999,0.00,,,0.00,,2013-10-24 08:42:00,
2013-10-24 03:53:00,40.0,-99.9,-100.00,NW,312,3.0,5.0,-999,0.00,,,0.00,,2013-10-24 08:53:00,
2013-10-24 04:12:00,40.0,-99.9,-100.00,NW,314,4.0,6.0,-999,0.00,,,0.00,,2013-10-24 09:12:00,
2013-10-24 04:22:00,40.0,-99.9,-100.00,NW,314,4.0,6.0,-999,0.00,,,0.00,,2013-10-24 09:22:00,
2013-10-24 04:43:00,40.0,-99.9,-100.00,NW,309,4.0,7.0,-999,0.00,,,0.00,,2013-10-24 09:43:00,
2013-10-24 04:54:00,40.0,-99.9,-100.00,NW,309,4.0,7.0,-999,0.00,,,0.00,,2013-10-24 09:54:00,
2013-10-24 05:13:00,40.0,-99.9,-100.00,NW,309,7.0,10.0,-999,0.00,,,0.00,,2013-10-24 10:13:00,
2013-10-24 05:23:00,40.0,-99.9,-100.00,NW,309,7.0,10.0,-999,0.00,,,0.00,,2013-10-24 10:23:00,
2013-10-24 05:43:00,39.0,-99.9,-100.00,NW,307,3.0,7.0,-999,0.00,,,0.00,,2013-10-24 10:43:00,
2013-10-24 05:53:00,39.0,-99.9,-100.00,NW,307,3.0,7.0,-999,0.00,,,0.00,,2013-10-24 10:53:00,
2013-10-24 06:12:00,37.0,-99.9,-100.00,West,272,1.0,2.0,-999,0.00,,,0.00,,2013-10-24 11:12:00,
2013-10-24 06:22:00,37.0,-99.9,-100.00,West,272,1.0,2.0,-999,0.00,,,0.00,,2013-10-24 11:22:00,
2013-10-24 06:43:00,36.0,-99.9,-100.00,WSW,247,1.0,3.0,-999,0.00,,,0.00,,2013-10-24 11:43:00,
2013-10-24 06:53:00,36.0,-99.9,-100.00,WSW,247,1.0,3.0,-999,0.00,,,0.00,,2013-10-24 11:53:00,
2013-10-24 07:12:00,35.0,-99.9,-100.00,WSW,247,2.0,3.0,-999,0.00,,,0.00,,2013-10-24 12:12:00,
2013-10-24 07:22:00,35.0,-99.9,-100.00,WSW,247,2.0,3.0,-999,0.00,,,0.00,,2013-10-24 12:22:00,
2013-10-24 07:42:00,34.0,-99.9,-100.00,WSW,243,2.0,3.0,-999,0.00,,,0.00,,2013-10-24 12:42:00,
2013-10-24 07:52:00,34.0,-99.9,-100.00,WSW,243,2.0,3.0,-999,0.00,,,0.00,,2013-10-24 12:52:00,
2013-10-24 08:12:00,34.0,-99.9,-100.00,WSW,246,3.0,7.0,-999,0.00,,,0.00,,2013-10-24 13:12:00,
2013-10-24 08:22:00,34.0,-99.9,-100.00,WSW,246,3.0,7.0,-999,0.00,,,0.00,,2013-10-24 13:22:00,
2013-10-24 08:43:00,34.0,-99.9,-100.00,WSW,252,2.0,4.0,-999,0.00,,,0.00,,2013-10-24 13:43:00,
2013-10-24 08:53:00,34.0,-99.9,-100.00,WSW,252,2.0,4.0,-999,0.00,,,0.00,,2013-10-24 13:53:00,
2013-10-24 09:11:00,36.0,-99.9,-100.00,WSW,258,3.0,7.0,-999,0.00,,,0.00,,2013-10-24 14:11:00,
2013-10-24 09:22:00,36.0,-99.9,-100.00,WSW,258,3.0,7.0,-999,0.00,,,0.00,,2013-10-24 14:22:00,
2013-10-24 09:30:00,42.0,-99.9,-100.00,WNW,295,4.0,8.0,-999,0.00,,,0.00,,2013-10-24 14:30:00,
2013-10-24 09:42:00,38.0,-99.9,-100.00,WSW,256,4.0,6.0,-999,0.00,,,0.00,,2013-10-24 14:42:00,
2013-10-24 09:52:00,38.0,-99.9,-100.00,WSW,256,4.0,6.0,-999,0.00,,,0.00,,2013-10-24 14:52:00,
2013-10-24 10:11:00,42.0,-99.9,-100.00,WNW,295,4.0,8.0,-999,0.00,,,0.00,,2013-10-24 15:11:00,
2013-10-24 10:21:00,42.0,-99.9,-100.00,WNW,295,4.0,8.0,-999,0.00,,,0.00,,2013-10-24 15:21:00,
2013-10-24 10:30:00,40.0,-99.9,-100.00,WNW,295,6.0,8.0,-999,0.00,,,0.00,,2013-10-24 15:30:00,
2013-10-24 11:13:00,40.0,-99.9,-100.00,WNW,295,6.0,8.0,-999,0.00,,,0.00,,2013-10-24 16:13:00,
2013-10-24 11:23:00,40.0,-99.9,-100.00,WNW,295,6.0,8.0,-999,0.00,,,0.00,,2013-10-24 16:23:00,
2013-10-24 11:30:00,42.0,-99.9,-100.00,NW,320,7.0,12.0,-999,0.00,,,0.00,,2013-10-24 16:30:00,
2013-10-24 12:12:00,42.0,-99.9,-100.00,NW,320,7.0,12.0,-999,0.00,,,0.00,,2013-10-24 17:12:00,
2013-10-24 12:22:00,42.0,-99.9,-100.00,NW,320,7.0,12.0,-999,0.00,,,0.00,,2013-10-24 17:22:00,
2013-10-24 13:12:00,42.0,-99.9,-100.00,NW,324,6.0,9.0,-999,0.00,,,0.00,,2013-10-24 18:12:00,
2013-10-24 13:23:00,42.0,-99.9,-100.00,NW,324,6.0,9.0,-999,0.00,,,0.00,,2013-10-24 18:23:00,
2013-10-24 13:42:00,42.0,-99.9,-100.00,NW,315,7.0,10.0,-999,0.00,,,0.00,,2013-10-24 18:42:00,
2013-10-24 13:53:00,42.0,-99.9,-100.00,NW,315,7.0,10.0,-999,0.00,,,0.00,,2013-10-24 18:53:00,
2013-10-24 14:12:00,42.0,-99.9,-100.00,NW,316,6.0,9.0,-999,0.00,,,0.00,,2013-10-24 19:12:00,
2013-10-24 14:22:00,42.0,-99.9,-100.00,NW,316,6.0,9.0,-999,0.00,,,0.00,,2013-10-24 19:22:00,
2013-10-24 14:43:00,42.0,-99.9,-100.00,NW,312,5.0,8.0,-999,0.00,,,0.00,,2013-10-24 19:43:00,
2013-10-24 14:53:00,42.0,-99.9,-100.00,NW,312,5.0,8.0,-999,0.00,,,0.00,,2013-10-24 19:53:00,
2013-10-24 15:12:00,42.0,-99.9,-100.00,NW,318,6.0,10.0,-999,0.00,,,0.00,,2013-10-24 20:12:00,
2013-10-24 15:23:00,42.0,-99.9,-100.00,NW,318,6.0,10.0,-999,0.00,,,0.00,,2013-10-24 20:23:00,
2013-10-24 15:43:00,43.0,-99.9,-100.00,NW,310,6.0,12.0,-999,0.00,,,0.00,,2013-10-24 20:43:00,
2013-10-24 15:53:00,43.0,-99.9,-100.00,NW,310,6.0,12.0,-999,0.00,,,0.00,,2013-10-24 20:53:00,
2013-10-24 16:12:00,44.0,-99.9,-100.00,NNW,331,9.0,14.0,-999,0.00,,,0.00,,2013-10-24 21:12:00,
2013-10-24 16:22:00,44.0,-99.9,-100.00,NNW,331,9.0,14.0,-999,0.00,,,0.00,,2013-10-24 21:22:00,
2013-10-24 16:43:00,46.0,-99.9,-100.00,NW,320,6.0,13.0,-999,0.00,,,0.00,,2013-10-24 21:43:00,
2013-10-24 16:54:00,46.0,-99.9,-100.00,NW,320,6.0,13.0,-999,0.00,,,0.00,,2013-10-24 21:54:00,
2013-10-24 17:14:00,44.0,-99.9,-100.00,NW,312,5.0,7.0,-999,0.00,,,0.00,,2013-10-24 22:14:00,
2013-10-24 17:24:00,44.0,-99.9,-100.00,NW,312,5.0,7.0,-999,0.00,,,0.00,,2013-10-24 22:24:00,
2013-10-24 17:43:00,44.0,-99.9,-100.00,NNW,331,6.0,11.0,-999,0.00,,,0.00,,2013-10-24 22:43:00,
2013-10-24 17:55:00,44.0,-99.9,-100.00,NNW,331,6.0,11.0,-999,0.00,,,0.00,,2013-10-24 22:55:00,
2013-10-24 18:13:00,44.0,-99.9,-100.00,WNW,287,3.0,7.0,-999,0.00,,,0.00,,2013-10-24 23:13:00,
2013-10-24 18:23:00,44.0,-99.9,-100.00,WNW,287,3.0,7.0,-999,0.00,,,0.00,,2013-10-24 23:23:00,
2013-10-24 18:43:00,43.0,-99.9,-100.00,West,274,1.0,3.0,-999,0.00,,,0.00,,2013-10-24 23:43:00,
2013-10-24 18:53:00,43.0,-99.9,-100.00,West,274,1.0,3.0,-999,0.00,,,0.00,,2013-10-24 23:53:00,
2013-10-24 19:12:00,42.0,-99.9,-100.00,WNW,303,1.0,1.0,-999,0.00,,,0.00,,2013-10-25 00:12:00,
2013-10-24 19:22:00,42.0,-99.9,-100.00,WNW,303,1.0,1.0,-999,0.00,,,0.00,,2013-10-25 00:22:00,
2013-10-24 19:42:00,41.0,-99.9,-100.00,WSW,244,0.0,1.0,-999,0.00,,,0.00,,2013-10-25 00:42:00,
2013-10-24 19:52:00,41.0,-99.9,-100.00,WSW,244,0.0,1.0,-999,0.00,,,0.00,,2013-10-25 00:52:00,
2013-10-24 20:12:00,40.0,-99.9,-100.00,WSW,240,0.0,1.0,-999,0.00,,,0.00,,2013-10-25 01:12:00,
2013-10-24 20:22:00,40.0,-99.9,-100.00,WSW,240,0.0,1.0,-999,0.00,,,0.00,,2013-10-25 01:22:00,
2013-10-24 20:43:00,38.0,-99.9,-100.00,West,274,0.0,1.0,-999,0.00,,,0.00,,2013-10-25 01:43:00,
2013-10-24 20:54:00,38.0,-99.9,-100.00,West,274,0.0,1.0,-999,0.00,,,0.00,,2013-10-25 01:54:00,
2013-10-24 21:12:00,37.0,-99.9,-100.00,West,270,0.0,1.0,-999,0.00,,,0.00,,2013-10-25 02:12:00,
2013-10-24 21:23:00,37.0,-99.9,-100.00,West,270,0.0,1.0,-999,0.00,,,0.00,,2013-10-25 02:23:00,
2013-10-24 21:43:00,36.0,-99.9,-100.00,WSW,258,0.0,1.0,-999,0.00,,,0.00,,2013-10-25 02:43:00,
2013-10-24 21:52:00,36.0,-99.9,-100.00,WSW,258,0.0,1.0,-999,0.00,,,0.00,,2013-10-25 02:52:00,
2013-10-24 22:12:00,36.0,-99.9,-100.00,West,280,0.0,1.0,-999,0.00,,,0.00,,2013-10-25 03:12:00,
2013-10-24 22:23:00,36.0,-99.9,-100.00,West,280,0.0,1.0,-999,0.00,,,0.00,,2013-10-25 03:23:00,
2013-10-24 22:44:00,36.0,-99.9,-100.00,WSW,241,1.0,1.0,-999,0.00,,,0.00,,2013-10-25 03:44:00,
2013-10-24 22:55:00,36.0,-99.9,-100.00,WSW,241,1.0,1.0,-999,0.00,,,0.00,,2013-10-25 03:55:00,
2013-10-24 23:14:00,35.0,-99.9,-100.00,WSW,250,1.0,2.0,-999,0.00,,,0.00,,2013-10-25 04:14:00,
2013-10-24 23:24:00,35.0,-99.9,-100.00,WSW,250,1.0,2.0,-999,0.00,,,0.00,,2013-10-25 04:24:00,
2013-10-24 23:44:00,34.0,-99.9,-100.00,West,264,1.0,1.0,-999,0.00,,,0.00,,2013-10-25 04:44:00,
2013-10-24 23:54:00,34.0,-99.9,-100.00,West,264,1.0,1.0,-999,0.00,,,0.00,,2013-10-25 04:54:00,